sensor_id;sensor_type;location;lat;lon;timestamp;P1;durP1;ratioP1;P2;durP2;ratioP2
39540;SDS011;25219;52.244;21.006;2023-12-20T00:00:53;18.10;;;9.77;;
39540;SDS011;25219;52.244;21.006;2023-12-20T00:03:18;16.73;;;10.25;;
39540;SDS011;25219;52.244;21.006;2023-12-20T00:05:43;19.27;;;9.50;;
39540;SDS011;25219;52.244;21.006;2023-12-20T00:08:09;15.13;;;8.98;;
39540;SDS011;25219;52.244;21.006;2023-12-20T00:10:34;14.70;;;9.25;;
39540;SDS011;25219;52.244;21.006;2023-12-20T00:13:00;17.15;;;9.48;;
39540;SDS011;25219;52.244;21.006;2023-12-20T00:15:25;13.77;;;8.10;;
39540;SDS011;25219;52.244;21.006;2023-12-20T00:17:50;18.85;;;9.38;;
39540;SDS011;25219;52.244;21.006;2023-12-20T00:20:16;14.00;;;8.70;;
39540;SDS011;25219;52.244;21.006;2023-12-20T00:22:41;15.48;;;8.30;;
39540;SDS011;25219;52.244;21.006;2023-12-20T00:25:06;13.00;;;8.45;;
39540;SDS011;25219;52.244;21.006;2023-12-20T00:27:32;14.00;;;8.75;;
39540;SDS011;25219;52.244;21.006;2023-12-20T00:29:57;13.98;;;8.50;;
39540;SDS011;25219;52.244;21.006;2023-12-20T00:32:22;18.02;;;9.68;;
39540;SDS011;25219;52.244;21.006;2023-12-20T00:34:47;16.77;;;9.18;;
39540;SDS011;25219;52.244;21.006;2023-12-20T00:37:13;17.17;;;9.18;;
39540;SDS011;25219;52.244;21.006;2023-12-20T00:39:38;13.50;;;7.68;;
39540;SDS011;25219;52.244;21.006;2023-12-20T00:42:03;16.73;;;8.38;;
39540;SDS011;25219;52.244;21.006;2023-12-20T00:44:29;17.27;;;8.88;;
39540;SDS011;25219;52.244;21.006;2023-12-20T00:46:54;16.83;;;9.10;;
39540;SDS011;25219;52.244;21.006;2023-12-20T00:49:19;15.43;;;8.82;;
39540;SDS011;25219;52.244;21.006;2023-12-20T00:51:45;14.55;;;8.88;;
39540;SDS011;25219;52.244;21.006;2023-12-20T00:54:10;22.95;;;13.30;;
39540;SDS011;25219;52.244;21.006;2023-12-20T00:56:35;14.20;;;8.73;;
39540;SDS011;25219;52.244;21.006;2023-12-20T00:59:00;14.25;;;8.75;;
39540;SDS011;25219;52.244;21.006;2023-12-20T01:01:26;12.20;;;7.82;;
39540;SDS011;25219;52.244;21.006;2023-12-20T01:03:51;14.48;;;8.43;;
39540;SDS011;25219;52.244;21.006;2023-12-20T01:06:17;15.15;;;7.90;;
39540;SDS011;25219;52.244;21.006;2023-12-20T01:08:43;14.20;;;7.95;;
39540;SDS011;25219;52.244;21.006;2023-12-20T01:11:08;12.52;;;7.97;;
39540;SDS011;25219;52.244;21.006;2023-12-20T01:13:33;14.38;;;7.97;;
39540;SDS011;25219;52.244;21.006;2023-12-20T01:15:59;15.48;;;9.20;;
39540;SDS011;25219;52.244;21.006;2023-12-20T01:18:24;13.20;;;8.18;;
39540;SDS011;25219;52.244;21.006;2023-12-20T01:20:49;14.35;;;8.35;;
39540;SDS011;25219;52.244;21.006;2023-12-20T01:23:15;13.13;;;8.10;;
39540;SDS011;25219;52.244;21.006;2023-12-20T01:25:41;13.30;;;8.27;;
39540;SDS011;25219;52.244;21.006;2023-12-20T01:28:06;10.70;;;7.60;;
39540;SDS011;25219;52.244;21.006;2023-12-20T01:30:32;12.65;;;7.78;;
39540;SDS011;25219;52.244;21.006;2023-12-20T01:32:58;14.23;;;7.85;;
39540;SDS011;25219;52.244;21.006;2023-12-20T01:35:23;11.68;;;7.70;;
39540;SDS011;25219;52.244;21.006;2023-12-20T01:37:48;11.55;;;7.22;;
39540;SDS011;25219;52.244;21.006;2023-12-20T01:40:14;11.43;;;8.05;;
39540;SDS011;25219;52.244;21.006;2023-12-20T01:42:39;12.60;;;7.20;;
39540;SDS011;25219;52.244;21.006;2023-12-20T01:45:05;12.65;;;7.60;;
39540;SDS011;25219;52.244;21.006;2023-12-20T01:47:30;14.20;;;6.38;;
39540;SDS011;25219;52.244;21.006;2023-12-20T01:49:55;11.70;;;6.00;;
39540;SDS011;25219;52.244;21.006;2023-12-20T01:52:22;11.90;;;8.00;;
39540;SDS011;25219;52.244;21.006;2023-12-20T01:54:47;11.07;;;7.20;;
39540;SDS011;25219;52.244;21.006;2023-12-20T01:57:13;11.43;;;6.70;;
39540;SDS011;25219;52.244;21.006;2023-12-20T01:59:39;10.85;;;6.80;;
39540;SDS011;25219;52.244;21.006;2023-12-20T02:02:05;14.30;;;7.40;;
39540;SDS011;25219;52.244;21.006;2023-12-20T02:04:30;10.65;;;6.38;;
39540;SDS011;25219;52.244;21.006;2023-12-20T02:06:56;10.48;;;6.47;;
39540;SDS011;25219;52.244;21.006;2023-12-20T02:09:22;12.45;;;6.95;;
39540;SDS011;25219;52.244;21.006;2023-12-20T02:11:47;10.65;;;6.55;;
39540;SDS011;25219;52.244;21.006;2023-12-20T02:14:13;10.95;;;6.70;;
39540;SDS011;25219;52.244;21.006;2023-12-20T02:16:38;9.55;;;6.22;;
39540;SDS011;25219;52.244;21.006;2023-12-20T02:19:04;9.55;;;6.30;;
39540;SDS011;25219;52.244;21.006;2023-12-20T02:21:32;11.25;;;6.03;;
39540;SDS011;25219;52.244;21.006;2023-12-20T02:23:59;10.57;;;5.80;;
39540;SDS011;25219;52.244;21.006;2023-12-20T02:26:24;8.55;;;5.32;;
39540;SDS011;25219;52.244;21.006;2023-12-20T02:28:49;9.30;;;5.13;;
39540;SDS011;25219;52.244;21.006;2023-12-20T02:31:14;8.30;;;5.70;;
39540;SDS011;25219;52.244;21.006;2023-12-20T02:33:40;9.07;;;5.72;;
39540;SDS011;25219;52.244;21.006;2023-12-20T02:36:07;9.88;;;4.93;;
39540;SDS011;25219;52.244;21.006;2023-12-20T02:38:32;7.50;;;5.20;;
39540;SDS011;25219;52.244;21.006;2023-12-20T02:40:58;6.18;;;4.28;;
39540;SDS011;25219;52.244;21.006;2023-12-20T02:43:24;8.45;;;4.55;;
39540;SDS011;25219;52.244;21.006;2023-12-20T02:45:49;7.43;;;4.80;;
39540;SDS011;25219;52.244;21.006;2023-12-20T02:48:14;7.03;;;4.20;;
39540;SDS011;25219;52.244;21.006;2023-12-20T02:50:40;6.75;;;3.88;;
39540;SDS011;25219;52.244;21.006;2023-12-20T02:53:05;5.15;;;3.80;;
39540;SDS011;25219;52.244;21.006;2023-12-20T02:55:30;6.93;;;3.28;;
39540;SDS011;25219;52.244;21.006;2023-12-20T02:57:56;4.13;;;2.88;;
39540;SDS011;25219;52.244;21.006;2023-12-20T03:00:21;13.60;;;3.45;;
39540;SDS011;25219;52.244;21.006;2023-12-20T03:02:46;3.97;;;2.90;;
39540;SDS011;25219;52.244;21.006;2023-12-20T03:05:11;6.03;;;2.78;;
39540;SDS011;25219;52.244;21.006;2023-12-20T03:07:37;5.55;;;2.75;;
39540;SDS011;25219;52.244;21.006;2023-12-20T03:10:03;4.85;;;2.88;;
39540;SDS011;25219;52.244;21.006;2023-12-20T03:12:29;5.28;;;2.80;;
39540;SDS011;25219;52.244;21.006;2023-12-20T03:14:54;5.38;;;3.08;;
39540;SDS011;25219;52.244;21.006;2023-12-20T03:17:19;5.18;;;3.28;;
39540;SDS011;25219;52.244;21.006;2023-12-20T03:19:45;6.45;;;3.53;;
39540;SDS011;25219;52.244;21.006;2023-12-20T03:22:10;3.60;;;3.05;;
39540;SDS011;25219;52.244;21.006;2023-12-20T03:24:36;5.03;;;3.33;;
39540;SDS011;25219;52.244;21.006;2023-12-20T03:27:01;4.50;;;3.25;;
39540;SDS011;25219;52.244;21.006;2023-12-20T03:29:26;9.43;;;3.60;;
39540;SDS011;25219;52.244;21.006;2023-12-20T03:31:52;5.93;;;3.83;;
39540;SDS011;25219;52.244;21.006;2023-12-20T03:34:17;7.25;;;3.70;;
39540;SDS011;25219;52.244;21.006;2023-12-20T03:36:42;6.40;;;3.70;;
39540;SDS011;25219;52.244;21.006;2023-12-20T03:39:07;6.70;;;3.00;;
39540;SDS011;25219;52.244;21.006;2023-12-20T03:41:35;5.85;;;3.72;;
39540;SDS011;25219;52.244;21.006;2023-12-20T03:44:00;5.10;;;3.35;;
39540;SDS011;25219;52.244;21.006;2023-12-20T03:46:25;4.53;;;3.35;;
39540;SDS011;25219;52.244;21.006;2023-12-20T03:48:50;6.25;;;3.97;;
39540;SDS011;25219;52.244;21.006;2023-12-20T03:51:16;5.55;;;3.53;;
39540;SDS011;25219;52.244;21.006;2023-12-20T03:53:41;6.40;;;3.70;;
39540;SDS011;25219;52.244;21.006;2023-12-20T03:56:06;6.50;;;3.30;;
39540;SDS011;25219;52.244;21.006;2023-12-20T03:58:32;6.15;;;2.97;;
39540;SDS011;25219;52.244;21.006;2023-12-20T04:00:57;7.63;;;3.53;;
39540;SDS011;25219;52.244;21.006;2023-12-20T04:03:22;7.63;;;3.78;;
39540;SDS011;25219;52.244;21.006;2023-12-20T04:05:47;4.97;;;3.28;;
39540;SDS011;25219;52.244;21.006;2023-12-20T04:08:13;6.15;;;3.35;;
39540;SDS011;25219;52.244;21.006;2023-12-20T04:10:38;6.57;;;4.22;;
39540;SDS011;25219;52.244;21.006;2023-12-20T04:13:04;5.75;;;3.90;;
39540;SDS011;25219;52.244;21.006;2023-12-20T04:15:29;4.65;;;3.63;;
39540;SDS011;25219;52.244;21.006;2023-12-20T04:17:54;6.55;;;3.78;;
39540;SDS011;25219;52.244;21.006;2023-12-20T04:20:20;5.88;;;3.58;;
39540;SDS011;25219;52.244;21.006;2023-12-20T04:22:45;6.95;;;3.78;;
39540;SDS011;25219;52.244;21.006;2023-12-20T04:25:10;6.38;;;3.92;;
39540;SDS011;25219;52.244;21.006;2023-12-20T04:27:36;7.20;;;4.20;;
39540;SDS011;25219;52.244;21.006;2023-12-20T04:30:01;7.75;;;4.70;;
39540;SDS011;25219;52.244;21.006;2023-12-20T04:32:26;7.45;;;4.55;;
39540;SDS011;25219;52.244;21.006;2023-12-20T04:34:51;6.25;;;4.60;;
39540;SDS011;25219;52.244;21.006;2023-12-20T04:37:17;7.72;;;4.72;;
39540;SDS011;25219;52.244;21.006;2023-12-20T04:39:42;6.07;;;4.57;;
39540;SDS011;25219;52.244;21.006;2023-12-20T04:42:07;6.88;;;5.45;;
39540;SDS011;25219;52.244;21.006;2023-12-20T04:44:32;7.13;;;4.50;;
39540;SDS011;25219;52.244;21.006;2023-12-20T04:46:58;7.43;;;5.60;;
39540;SDS011;25219;52.244;21.006;2023-12-20T04:49:23;9.18;;;5.40;;
39540;SDS011;25219;52.244;21.006;2023-12-20T04:51:48;7.90;;;5.15;;
39540;SDS011;25219;52.244;21.006;2023-12-20T04:54:14;7.63;;;5.65;;
39540;SDS011;25219;52.244;21.006;2023-12-20T04:56:39;8.57;;;5.90;;
39540;SDS011;25219;52.244;21.006;2023-12-20T04:59:04;8.43;;;5.68;;
39540;SDS011;25219;52.244;21.006;2023-12-20T05:01:30;8.00;;;5.28;;
39540;SDS011;25219;52.244;21.006;2023-12-20T05:03:56;8.07;;;5.38;;
39540;SDS011;25219;52.244;21.006;2023-12-20T05:06:21;11.00;;;6.63;;
39540;SDS011;25219;52.244;21.006;2023-12-20T05:08:46;9.15;;;6.30;;
39540;SDS011;25219;52.244;21.006;2023-12-20T05:11:12;9.63;;;5.47;;
39540;SDS011;25219;52.244;21.006;2023-12-20T05:13:39;8.27;;;5.90;;
39540;SDS011;25219;52.244;21.006;2023-12-20T05:16:04;8.82;;;6.13;;
39540;SDS011;25219;52.244;21.006;2023-12-20T05:18:30;9.18;;;6.22;;
39540;SDS011;25219;52.244;21.006;2023-12-20T05:20:55;11.57;;;6.68;;
39540;SDS011;25219;52.244;21.006;2023-12-20T05:23:20;10.07;;;6.75;;
39540;SDS011;25219;52.244;21.006;2023-12-20T05:25:45;9.48;;;6.65;;
39540;SDS011;25219;52.244;21.006;2023-12-20T05:28:11;10.85;;;6.32;;
39540;SDS011;25219;52.244;21.006;2023-12-20T05:30:36;11.10;;;6.40;;
39540;SDS011;25219;52.244;21.006;2023-12-20T05:33:01;10.18;;;6.35;;
39540;SDS011;25219;52.244;21.006;2023-12-20T05:35:27;10.02;;;6.30;;
39540;SDS011;25219;52.244;21.006;2023-12-20T05:37:52;10.63;;;7.18;;
39540;SDS011;25219;52.244;21.006;2023-12-20T05:40:17;11.27;;;6.50;;
39540;SDS011;25219;52.244;21.006;2023-12-20T05:42:42;10.35;;;6.63;;
39540;SDS011;25219;52.244;21.006;2023-12-20T05:45:08;11.35;;;6.75;;
39540;SDS011;25219;52.244;21.006;2023-12-20T05:47:34;8.80;;;6.47;;
39540;SDS011;25219;52.244;21.006;2023-12-20T05:49:59;10.25;;;6.63;;
39540;SDS011;25219;52.244;21.006;2023-12-20T05:52:24;11.75;;;7.07;;
39540;SDS011;25219;52.244;21.006;2023-12-20T05:54:50;9.95;;;6.95;;
39540;SDS011;25219;52.244;21.006;2023-12-20T05:57:15;9.55;;;6.47;;
39540;SDS011;25219;52.244;21.006;2023-12-20T05:59:40;9.05;;;6.32;;
39540;SDS011;25219;52.244;21.006;2023-12-20T06:02:06;9.90;;;6.68;;
39540;SDS011;25219;52.244;21.006;2023-12-20T06:04:31;9.23;;;6.97;;
39540;SDS011;25219;52.244;21.006;2023-12-20T06:06:56;10.98;;;7.20;;
39540;SDS011;25219;52.244;21.006;2023-12-20T06:09:22;10.20;;;6.82;;
39540;SDS011;25219;52.244;21.006;2023-12-20T06:11:47;9.63;;;6.43;;
39540;SDS011;25219;52.244;21.006;2023-12-20T06:14:12;9.75;;;6.45;;
39540;SDS011;25219;52.244;21.006;2023-12-20T06:16:38;10.00;;;6.82;;
39540;SDS011;25219;52.244;21.006;2023-12-20T06:19:03;10.88;;;6.20;;
39540;SDS011;25219;52.244;21.006;2023-12-20T06:21:28;9.65;;;6.28;;
39540;SDS011;25219;52.244;21.006;2023-12-20T06:23:54;11.32;;;6.30;;
39540;SDS011;25219;52.244;21.006;2023-12-20T06:26:20;8.35;;;6.22;;
39540;SDS011;25219;52.244;21.006;2023-12-20T06:28:45;10.77;;;5.85;;
39540;SDS011;25219;52.244;21.006;2023-12-20T06:31:10;10.40;;;6.70;;
39540;SDS011;25219;52.244;21.006;2023-12-20T06:33:36;8.70;;;5.75;;
39540;SDS011;25219;52.244;21.006;2023-12-20T06:36:01;10.20;;;5.97;;
39540;SDS011;25219;52.244;21.006;2023-12-20T06:38:26;9.82;;;6.20;;
39540;SDS011;25219;52.244;21.006;2023-12-20T06:40:52;9.55;;;5.50;;
39540;SDS011;25219;52.244;21.006;2023-12-20T06:43:17;7.97;;;5.82;;
39540;SDS011;25219;52.244;21.006;2023-12-20T06:45:42;12.00;;;5.82;;
39540;SDS011;25219;52.244;21.006;2023-12-20T06:48:08;7.97;;;5.40;;
39540;SDS011;25219;52.244;21.006;2023-12-20T06:50:33;8.45;;;5.60;;
39540;SDS011;25219;52.244;21.006;2023-12-20T06:52:58;8.00;;;5.70;;
39540;SDS011;25219;52.244;21.006;2023-12-20T06:55:24;9.18;;;6.03;;
39540;SDS011;25219;52.244;21.006;2023-12-20T06:57:49;8.05;;;6.00;;
39540;SDS011;25219;52.244;21.006;2023-12-20T07:00:14;8.68;;;6.00;;
39540;SDS011;25219;52.244;21.006;2023-12-20T07:02:40;9.05;;;5.72;;
39540;SDS011;25219;52.244;21.006;2023-12-20T07:05:05;9.80;;;6.78;;
39540;SDS011;25219;52.244;21.006;2023-12-20T07:07:31;8.05;;;5.93;;
39540;SDS011;25219;52.244;21.006;2023-12-20T07:09:56;14.40;;;6.65;;
39540;SDS011;25219;52.244;21.006;2023-12-20T07:12:22;9.48;;;6.28;;
39540;SDS011;25219;52.244;21.006;2023-12-20T07:14:47;10.75;;;5.70;;
39540;SDS011;25219;52.244;21.006;2023-12-20T07:17:12;8.20;;;6.38;;
39540;SDS011;25219;52.244;21.006;2023-12-20T07:19:39;9.38;;;6.35;;
39540;SDS011;25219;52.244;21.006;2023-12-20T07:22:08;9.55;;;6.93;;
39540;SDS011;25219;52.244;21.006;2023-12-20T07:24:33;8.95;;;6.32;;
39540;SDS011;25219;52.244;21.006;2023-12-20T07:26:59;9.77;;;6.22;;
39540;SDS011;25219;52.244;21.006;2023-12-20T07:29:24;10.57;;;6.93;;
39540;SDS011;25219;52.244;21.006;2023-12-20T07:31:50;9.30;;;6.10;;
39540;SDS011;25219;52.244;21.006;2023-12-20T07:34:17;9.77;;;6.60;;
39540;SDS011;25219;52.244;21.006;2023-12-20T07:36:42;10.38;;;6.55;;
39540;SDS011;25219;52.244;21.006;2023-12-20T07:39:07;9.85;;;6.90;;
39540;SDS011;25219;52.244;21.006;2023-12-20T07:41:33;9.65;;;6.72;;
39540;SDS011;25219;52.244;21.006;2023-12-20T07:43:58;9.88;;;6.70;;
39540;SDS011;25219;52.244;21.006;2023-12-20T07:46:24;12.05;;;6.30;;
39540;SDS011;25219;52.244;21.006;2023-12-20T07:48:49;9.02;;;6.20;;
39540;SDS011;25219;52.244;21.006;2023-12-20T07:51:14;10.13;;;6.15;;
39540;SDS011;25219;52.244;21.006;2023-12-20T07:53:40;8.65;;;6.25;;
39540;SDS011;25219;52.244;21.006;2023-12-20T07:56:15;8.27;;;6.25;;
39540;SDS011;25219;52.244;21.006;2023-12-20T07:58:40;8.73;;;5.75;;
39540;SDS011;25219;52.244;21.006;2023-12-20T08:01:05;9.27;;;5.50;;
39540;SDS011;25219;52.244;21.006;2023-12-20T08:03:31;6.78;;;5.38;;
39540;SDS011;25219;52.244;21.006;2023-12-20T08:05:56;8.20;;;5.78;;
39540;SDS011;25219;52.244;21.006;2023-12-20T08:08:24;9.35;;;6.30;;
39540;SDS011;25219;52.244;21.006;2023-12-20T08:10:49;9.27;;;5.85;;
39540;SDS011;25219;52.244;21.006;2023-12-20T08:13:15;11.35;;;6.03;;
39540;SDS011;25219;52.244;21.006;2023-12-20T08:15:40;16.05;;;6.60;;
39540;SDS011;25219;52.244;21.006;2023-12-20T08:18:06;9.57;;;5.75;;
39540;SDS011;25219;52.244;21.006;2023-12-20T08:20:31;8.43;;;5.45;;
39540;SDS011;25219;52.244;21.006;2023-12-20T08:22:56;7.85;;;5.30;;
39540;SDS011;25219;52.244;21.006;2023-12-20T08:25:22;8.15;;;5.10;;
39540;SDS011;25219;52.244;21.006;2023-12-20T08:27:47;7.32;;;5.15;;
39540;SDS011;25219;52.244;21.006;2023-12-20T08:30:12;8.73;;;5.45;;
39540;SDS011;25219;52.244;21.006;2023-12-20T08:32:38;10.90;;;5.50;;
39540;SDS011;25219;52.244;21.006;2023-12-20T08:35:03;8.98;;;5.07;;
39540;SDS011;25219;52.244;21.006;2023-12-20T08:37:29;7.25;;;4.93;;
39540;SDS011;25219;52.244;21.006;2023-12-20T08:39:55;7.55;;;5.35;;
39540;SDS011;25219;52.244;21.006;2023-12-20T08:42:20;6.13;;;4.78;;
39540;SDS011;25219;52.244;21.006;2023-12-20T08:44:46;6.38;;;4.60;;
39540;SDS011;25219;52.244;21.006;2023-12-20T08:47:11;12.30;;;5.63;;
39540;SDS011;25219;52.244;21.006;2023-12-20T08:49:38;8.05;;;5.00;;
39540;SDS011;25219;52.244;21.006;2023-12-20T08:52:04;6.60;;;4.82;;
39540;SDS011;25219;52.244;21.006;2023-12-20T08:54:29;6.50;;;4.57;;
39540;SDS011;25219;52.244;21.006;2023-12-20T08:56:54;9.10;;;5.70;;
39540;SDS011;25219;52.244;21.006;2023-12-20T08:59:20;8.35;;;5.40;;
39540;SDS011;25219;52.244;21.006;2023-12-20T09:01:45;7.07;;;4.53;;
39540;SDS011;25219;52.244;21.006;2023-12-20T09:04:11;6.15;;;4.75;;
39540;SDS011;25219;52.244;21.006;2023-12-20T09:06:36;7.90;;;4.85;;
39540;SDS011;25219;52.244;21.006;2023-12-20T09:09:02;6.70;;;4.50;;
39540;SDS011;25219;52.244;21.006;2023-12-20T09:11:27;7.68;;;4.80;;
39540;SDS011;25219;52.244;21.006;2023-12-20T09:13:52;8.00;;;5.22;;
39540;SDS011;25219;52.244;21.006;2023-12-20T09:16:18;8.60;;;4.97;;
39540;SDS011;25219;52.244;21.006;2023-12-20T09:18:43;10.23;;;5.30;;
39540;SDS011;25219;52.244;21.006;2023-12-20T09:21:09;8.25;;;5.15;;
39540;SDS011;25219;52.244;21.006;2023-12-20T09:23:34;10.60;;;5.25;;
39540;SDS011;25219;52.244;21.006;2023-12-20T09:25:59;7.72;;;4.93;;
39540;SDS011;25219;52.244;21.006;2023-12-20T09:28:24;10.02;;;5.20;;
39540;SDS011;25219;52.244;21.006;2023-12-20T09:30:50;10.27;;;5.03;;
39540;SDS011;25219;52.244;21.006;2023-12-20T09:33:15;6.57;;;4.60;;
39540;SDS011;25219;52.244;21.006;2023-12-20T09:35:41;7.68;;;4.78;;
39540;SDS011;25219;52.244;21.006;2023-12-20T09:38:06;6.57;;;4.18;;
39540;SDS011;25219;52.244;21.006;2023-12-20T09:40:32;6.15;;;4.85;;
39540;SDS011;25219;52.244;21.006;2023-12-20T09:43:01;8.35;;;4.78;;
39540;SDS011;25219;52.244;21.006;2023-12-20T09:45:28;6.07;;;4.13;;
39540;SDS011;25219;52.244;21.006;2023-12-20T09:47:55;6.85;;;4.40;;
39540;SDS011;25219;52.244;21.006;2023-12-20T09:50:21;8.75;;;4.45;;
39540;SDS011;25219;52.244;21.006;2023-12-20T09:52:50;6.10;;;4.10;;
39540;SDS011;25219;52.244;21.006;2023-12-20T09:55:20;6.45;;;4.43;;
39540;SDS011;25219;52.244;21.006;2023-12-20T09:57:45;6.38;;;4.63;;
39540;SDS011;25219;52.244;21.006;2023-12-20T10:00:11;5.95;;;4.28;;
39540;SDS011;25219;52.244;21.006;2023-12-20T10:02:37;6.53;;;4.18;;
39540;SDS011;25219;52.244;21.006;2023-12-20T10:05:03;6.65;;;4.55;;
39540;SDS011;25219;52.244;21.006;2023-12-20T10:07:34;5.78;;;4.10;;
39540;SDS011;25219;52.244;21.006;2023-12-20T10:09:59;7.50;;;4.65;;
39540;SDS011;25219;52.244;21.006;2023-12-20T10:12:25;6.20;;;4.25;;
39540;SDS011;25219;52.244;21.006;2023-12-20T10:14:50;6.47;;;4.22;;
39540;SDS011;25219;52.244;21.006;2023-12-20T10:17:16;6.60;;;4.50;;
39540;SDS011;25219;52.244;21.006;2023-12-20T10:19:42;6.20;;;3.55;;
39540;SDS011;25219;52.244;21.006;2023-12-20T10:22:07;5.47;;;3.92;;
39540;SDS011;25219;52.244;21.006;2023-12-20T10:24:33;7.82;;;4.57;;
39540;SDS011;25219;52.244;21.006;2023-12-20T10:27:05;13.13;;;8.93;;
39540;SDS011;25219;52.244;21.006;2023-12-20T10:29:37;6.30;;;4.50;;
39540;SDS011;25219;52.244;21.006;2023-12-20T10:32:21;7.40;;;4.55;;
39540;SDS011;25219;52.244;21.006;2023-12-20T10:34:47;5.75;;;4.30;;
39540;SDS011;25219;52.244;21.006;2023-12-20T10:37:13;5.82;;;4.38;;
39540;SDS011;25219;52.244;21.006;2023-12-20T10:39:38;7.97;;;4.28;;
39540;SDS011;25219;52.244;21.006;2023-12-20T10:42:04;8.15;;;4.70;;
39540;SDS011;25219;52.244;21.006;2023-12-20T10:44:29;10.18;;;4.50;;
39540;SDS011;25219;52.244;21.006;2023-12-20T10:46:54;7.90;;;4.65;;
39540;SDS011;25219;52.244;21.006;2023-12-20T10:49:23;8.32;;;4.47;;
39540;SDS011;25219;52.244;21.006;2023-12-20T10:51:49;8.73;;;4.80;;
39540;SDS011;25219;52.244;21.006;2023-12-20T10:54:16;6.45;;;4.25;;
39540;SDS011;25219;52.244;21.006;2023-12-20T10:56:42;8.00;;;4.78;;
39540;SDS011;25219;52.244;21.006;2023-12-20T10:59:07;7.18;;;4.93;;
39540;SDS011;25219;52.244;21.006;2023-12-20T11:01:35;7.80;;;4.70;;
39540;SDS011;25219;52.244;21.006;2023-12-20T11:04:02;6.53;;;4.38;;
39540;SDS011;25219;52.244;21.006;2023-12-20T11:09:14;6.97;;;3.97;;
39540;SDS011;25219;52.244;21.006;2023-12-20T11:11:46;9.13;;;5.03;;
39540;SDS011;25219;52.244;21.006;2023-12-20T11:14:19;6.50;;;4.15;;
39540;SDS011;25219;52.244;21.006;2023-12-20T11:16:45;7.72;;;4.30;;
39540;SDS011;25219;52.244;21.006;2023-12-20T11:19:10;8.43;;;4.78;;
39540;SDS011;25219;52.244;21.006;2023-12-20T11:21:36;5.60;;;4.50;;
39540;SDS011;25219;52.244;21.006;2023-12-20T11:24:01;6.28;;;3.85;;
39540;SDS011;25219;52.244;21.006;2023-12-20T11:26:27;7.32;;;4.25;;
39540;SDS011;25219;52.244;21.006;2023-12-20T11:31:50;6.55;;;4.13;;
39540;SDS011;25219;52.244;21.006;2023-12-20T11:34:15;7.97;;;3.65;;
39540;SDS011;25219;52.244;21.006;2023-12-20T11:36:42;6.53;;;4.15;;
39540;SDS011;25219;52.244;21.006;2023-12-20T11:39:07;7.65;;;4.38;;
39540;SDS011;25219;52.244;21.006;2023-12-20T11:41:35;6.47;;;3.60;;
39540;SDS011;25219;52.244;21.006;2023-12-20T11:44:01;6.82;;;4.22;;
39540;SDS011;25219;52.244;21.006;2023-12-20T11:46:27;5.85;;;3.85;;
39540;SDS011;25219;52.244;21.006;2023-12-20T11:48:53;10.40;;;3.45;;
39540;SDS011;25219;52.244;21.006;2023-12-20T11:51:19;5.07;;;3.85;;
39540;SDS011;25219;52.244;21.006;2023-12-20T11:53:44;28.42;;;12.70;;
39540;SDS011;25219;52.244;21.006;2023-12-20T11:56:10;10.00;;;5.28;;
39540;SDS011;25219;52.244;21.006;2023-12-20T11:58:36;6.65;;;4.63;;
39540;SDS011;25219;52.244;21.006;2023-12-20T12:01:01;10.23;;;4.30;;
39540;SDS011;25219;52.244;21.006;2023-12-20T12:03:29;8.60;;;4.20;;
39540;SDS011;25219;52.244;21.006;2023-12-20T12:05:55;6.25;;;4.25;;
39540;SDS011;25219;52.244;21.006;2023-12-20T12:08:20;7.05;;;4.65;;
39540;SDS011;25219;52.244;21.006;2023-12-20T12:10:46;6.97;;;4.80;;
39540;SDS011;25219;52.244;21.006;2023-12-20T12:13:11;7.13;;;4.50;;
39540;SDS011;25219;52.244;21.006;2023-12-20T12:15:37;9.35;;;4.70;;
39540;SDS011;25219;52.244;21.006;2023-12-20T12:18:02;12.52;;;5.32;;
39540;SDS011;25219;52.244;21.006;2023-12-20T12:20:28;7.82;;;5.50;;
39540;SDS011;25219;52.244;21.006;2023-12-20T12:23:06;8.25;;;5.38;;
39540;SDS011;25219;52.244;21.006;2023-12-20T12:25:32;8.13;;;5.40;;
39540;SDS011;25219;52.244;21.006;2023-12-20T12:27:57;10.32;;;5.60;;
39540;SDS011;25219;52.244;21.006;2023-12-20T12:30:23;7.82;;;5.32;;
39540;SDS011;25219;52.244;21.006;2023-12-20T12:32:48;9.20;;;6.03;;
39540;SDS011;25219;52.244;21.006;2023-12-20T12:35:14;6.82;;;5.25;;
39540;SDS011;25219;52.244;21.006;2023-12-20T12:37:40;9.55;;;5.47;;
39540;SDS011;25219;52.244;21.006;2023-12-20T12:40:06;10.00;;;5.25;;
39540;SDS011;25219;52.244;21.006;2023-12-20T12:42:32;7.63;;;5.28;;
39540;SDS011;25219;52.244;21.006;2023-12-20T12:44:57;10.07;;;5.80;;
39540;SDS011;25219;52.244;21.006;2023-12-20T12:47:22;7.13;;;5.55;;
39540;SDS011;25219;52.244;21.006;2023-12-20T12:49:49;9.10;;;5.47;;
39540;SDS011;25219;52.244;21.006;2023-12-20T12:52:16;9.57;;;5.35;;
39540;SDS011;25219;52.244;21.006;2023-12-20T12:54:41;10.35;;;5.60;;
39540;SDS011;25219;52.244;21.006;2023-12-20T12:57:07;9.55;;;6.35;;
39540;SDS011;25219;52.244;21.006;2023-12-20T12:59:32;9.20;;;5.80;;
39540;SDS011;25219;52.244;21.006;2023-12-20T13:01:58;10.68;;;5.95;;
39540;SDS011;25219;52.244;21.006;2023-12-20T13:04:23;11.13;;;6.25;;
39540;SDS011;25219;52.244;21.006;2023-12-20T13:06:48;12.43;;;6.55;;
39540;SDS011;25219;52.244;21.006;2023-12-20T13:09:14;8.75;;;6.40;;
39540;SDS011;25219;52.244;21.006;2023-12-20T13:11:40;11.75;;;6.18;;
39540;SDS011;25219;52.244;21.006;2023-12-20T13:14:05;10.48;;;6.57;;
39540;SDS011;25219;52.244;21.006;2023-12-20T13:16:31;11.35;;;6.78;;
39540;SDS011;25219;52.244;21.006;2023-12-20T13:18:56;12.07;;;7.30;;
39540;SDS011;25219;52.244;21.006;2023-12-20T13:21:21;11.15;;;7.10;;
39540;SDS011;25219;52.244;21.006;2023-12-20T13:23:46;13.65;;;6.38;;
39540;SDS011;25219;52.244;21.006;2023-12-20T13:26:12;16.30;;;7.75;;
39540;SDS011;25219;52.244;21.006;2023-12-20T13:28:37;10.95;;;6.03;;
39540;SDS011;25219;52.244;21.006;2023-12-20T13:31:02;13.77;;;7.22;;
39540;SDS011;25219;52.244;21.006;2023-12-20T13:33:28;12.02;;;5.97;;
39540;SDS011;25219;52.244;21.006;2023-12-20T13:35:53;11.50;;;6.63;;
39540;SDS011;25219;52.244;21.006;2023-12-20T13:38:18;10.27;;;6.25;;
39540;SDS011;25219;52.244;21.006;2023-12-20T13:40:44;9.63;;;6.57;;
39540;SDS011;25219;52.244;21.006;2023-12-20T13:43:09;12.15;;;6.35;;
39540;SDS011;25219;52.244;21.006;2023-12-20T13:45:36;9.75;;;5.82;;
39540;SDS011;25219;52.244;21.006;2023-12-20T13:48:02;11.88;;;5.97;;
39540;SDS011;25219;52.244;21.006;2023-12-20T13:50:27;12.27;;;6.45;;
39540;SDS011;25219;52.244;21.006;2023-12-20T13:52:53;10.05;;;5.80;;
39540;SDS011;25219;52.244;21.006;2023-12-20T13:55:18;11.85;;;6.13;;
39540;SDS011;25219;52.244;21.006;2023-12-20T13:57:47;9.88;;;5.63;;
39540;SDS011;25219;52.244;21.006;2023-12-20T14:00:13;11.20;;;5.63;;
39540;SDS011;25219;52.244;21.006;2023-12-20T14:02:40;10.23;;;6.47;;
39540;SDS011;25219;52.244;21.006;2023-12-20T14:05:05;8.80;;;5.63;;
39540;SDS011;25219;52.244;21.006;2023-12-20T14:07:31;7.03;;;5.10;;
39540;SDS011;25219;52.244;21.006;2023-12-20T14:09:56;7.85;;;5.55;;
39540;SDS011;25219;52.244;21.006;2023-12-20T14:12:21;8.52;;;5.65;;
39540;SDS011;25219;52.244;21.006;2023-12-20T14:14:47;7.30;;;4.43;;
39540;SDS011;25219;52.244;21.006;2023-12-20T14:17:12;7.70;;;4.75;;
39540;SDS011;25219;52.244;21.006;2023-12-20T14:19:37;9.98;;;4.95;;
39540;SDS011;25219;52.244;21.006;2023-12-20T14:22:04;10.45;;;4.78;;
39540;SDS011;25219;52.244;21.006;2023-12-20T14:24:30;11.10;;;4.68;;